Prudhoe Bay, AK (99734)

1:40 PM AKST on January 29, 2015 (GMT -0900)
Deadhorse | Change Station
CLOSE
Current Station
Airport
Location: Deadhorse,
Elevation: 59 ft
Nearby Weather Stations

Elev 59 ft 70.19 °N, 148.47 °W | Updated 47 minutes ago

Scattered Clouds
Scattered Clouds
-28 °F
Feels Like -48 °F
N
8
Wind Variable Wind from WSW

Today
High -- | Low -- °F
--% Chance of Precip.
Yesterday
High -- | Low -- °F
Precip. -- in
10:57 AM 3:20 PM
Waxing Gibbous, 77% visible
Pressure 30.66 in
Visibility 10.0 miles
Clouds Scattered Clouds 4800 ft
Windchill -48 °F
Dew Point -35 °F
Humidity 69%
Rainfall 0.00 in
Snow Depth Not available.
UV 0 out of 12
Pollen Not available.
Air Quality Not available.
Flu Activity Not available.
METAR PASC 292153Z 24007KT 10SM SCT048 M33/M37 A3065 RMK AO2 SLP382 T13331372

More Conditions Fewer Conditions

Pressure 30.66 in
Visibility 10.0 miles
Clouds Scattered Clouds 4800 ft
Windchill -48 °F
Dew Point -35 °F
Humidity 69%
Rainfall 0.00 in
Snow Depth Not available.
UV 0 out of 12
Pollen Not available.
Air Quality Not available.
Flu Activity Not available.
METAR PASC 292153Z 24007KT 10SM SCT048 M33/M37 A3065 RMK AO2 SLP382 T13331372

More Conditions Fewer Conditions

10-Day Weather Forecast

Almanac

Astronomy

Jan. 29, 2015 Rise Set
Actual Time
Civil Twilight
Nautical Twilight
Astronomical Twilight
Moon
Length of Visible Light
Length of Day
Tomorrow will be .
, % of the Moon is Illuminated

Today's Extremes

State Highs State Lows

Community

WunderPhotos

Upload Photos

1,791,635 photos uploaded!

WunderBlogs® & News

Nearby

Air Quality

  Air Quality AQ Index Pollutant
Not available.

Snow Depth

Station Depth Elevation

Earthquake Activity

City Distance Mag. Time & Date
Minimum magnitude displayed is 2.5.

Coastal Water Temperatures

Place Temperature

Nearby Weather Stations